Portada
METAR-TAF:

METAR-TAF

Aeroports :

Blue Ridge Airport

Martinsville, Virgínia, Estats Units d'Amèrica

latitud: 36-38N, longitud: 080-01W, altitud: 287 m

Observació

L'informe es va fer fa 18 minuts, a les 12:35 UTC
Vent calma
Temperatura 2°C
Humitat 100%
Pressió 1012 hPa
Visibilitat: 0.4 km
Cel cobert a una alçada de 300 ft
boira

METAR: KMTV 191235Z AUTO 00000KT 1/4SM FG OVC003 02/02 A2988 RMK AO2 T00230023

Hora: 07:53 (12:53 UTC)


TAF: manca

Observacions i pronòstics meteorològics de més de 4000 aeroports (METAR i TAF).

Les estacions disponibles són els punts grocs i vermells al mapa.

Posi el ratolí al punt desitjat per veure el nom de l'estació.

Feu clic per veure les observacions i els pronòstics meteorològics.

Per canviar el mapa: feu clic els botons verds amb una creu de color negre per apropar; al botó verd amb un guió per allunyar la imatge; o en les fletxes verdes per a mapes adjacents.


METAR-TAF: